createdAt,value
2016-04-28T00:00:21.322Z,17.4
2016-04-28T00:01:21.309Z,17.55
2016-04-28T00:02:21.280Z,17.46
2016-04-28T00:03:21.266Z,17.43
2016-04-28T00:04:21.692Z,17.43
2016-04-28T00:05:21.227Z,17.4
2016-04-28T00:06:21.057Z,17.51
2016-04-28T00:07:21.184Z,17.43
2016-04-28T00:08:21.172Z,17.47
2016-04-28T00:09:21.143Z,17.42
2016-04-28T00:10:21.129Z,17.43
2016-04-28T00:11:22.195Z,17.49
2016-04-28T00:12:21.698Z,17.39
2016-04-28T00:13:21.076Z,17.42
2016-04-28T00:14:21.063Z,17.45
2016-04-28T00:15:21.034Z,17.4
2016-04-28T00:16:21.020Z,17.33
2016-04-28T00:17:21.009Z,17.4
2016-04-28T00:18:20.979Z,17.38
2016-04-28T00:19:20.967Z,17.38
2016-04-28T00:20:21.016Z,17.42
2016-04-28T00:21:20.925Z,17.36
2016-04-28T00:22:20.912Z,17.42
2016-04-28T00:23:20.900Z,17.32
2016-04-28T00:24:20.886Z,17.39
2016-04-28T00:25:20.858Z,17.42
2016-04-28T00:26:21.501Z,17.3
2016-04-28T00:27:20.832Z,17.33
2016-04-28T00:28:20.975Z,17.36
2016-04-28T00:29:20.790Z,17.33
2016-04-28T00:30:20.762Z,17.45
2016-04-28T00:31:20.749Z,17.3
2016-04-28T00:32:20.736Z,17.32
2016-04-28T00:33:20.707Z,17.39
2016-04-28T00:34:20.679Z,17.32
2016-04-28T00:35:20.682Z,17.39
2016-04-28T00:36:21.809Z,17.36
2016-04-28T00:37:20.655Z,17.39
2016-04-28T00:38:20.627Z,17.33
2016-04-28T00:39:20.614Z,17.38
2016-04-28T00:40:20.585Z,17.3
2016-04-28T00:41:20.901Z,17.35
2016-04-28T00:42:20.559Z,17.35
2016-04-28T00:43:20.516Z,17.38
2016-04-28T00:44:20.502Z,17.27
2016-04-28T00:45:20.505Z,17.27
2016-04-28T00:46:20.476Z,17.42
2016-04-28T00:47:20.448Z,17.3
2016-04-28T00:48:20.435Z,17.3
2016-04-28T00:49:20.422Z,17.33
2016-04-28T00:50:20.409Z,17.27
2016-04-28T00:51:20.381Z,17.38
2016-04-28T00:52:20.353Z,17.39
2016-04-28T00:53:21.011Z,17.28
2016-04-28T00:54:20.342Z,17.27
2016-04-28T00:55:20.314Z,17.27
2016-04-28T00:56:20.144Z,17.32
2016-04-28T00:57:20.272Z,17.32
2016-04-28T00:58:20.244Z,17.33
2016-04-28T00:59:20.230Z,17.3
2016-04-28T01:00:20.936Z,17.24
2016-04-28T01:01:20.189Z,17.28
2016-04-28T01:02:20.175Z,17.33
2016-04-28T01:03:20.163Z,17.28
2016-04-28T01:04:20.150Z,17.25
2016-04-28T01:05:20.122Z,17.3
2016-04-28T01:06:20.108Z,17.32
2016-04-28T01:07:20.080Z,17.27
2016-04-28T01:08:20.129Z,17.27
2016-04-28T01:09:20.054Z,17.25
2016-04-28T01:10:20.057Z,17.2
2016-04-28T01:11:19.699Z,17.25
2016-04-28T01:12:19.999Z,17.33
2016-04-28T01:13:19.987Z,17.22
2016-04-28T01:14:19.974Z,17.21
2016-04-28T01:15:19.945Z,17.17
2016-04-28T01:16:20.167Z,17.24
2016-04-28T01:17:19.904Z,17.28
2016-04-28T01:18:19.891Z,17.27
2016-04-28T01:19:19.878Z,17.27
2016-04-28T01:20:19.849Z,17.25
2016-04-28T01:21:19.820Z,17.32
2016-04-28T01:22:19.823Z,17.27
2016-04-28T01:23:19.795Z,17.15
2016-04-28T01:24:20.172Z,17.21
2016-04-28T01:25:19.753Z,17.18
2016-04-28T01:26:20.272Z,17.15
2016-04-28T01:27:19.743Z,17.21
2016-04-28T01:28:19.558Z,17.24
2016-04-28T01:29:19.686Z,17.1
2016-04-28T01:30:19.658Z,17.15
2016-04-28T01:31:19.817Z,17.15
2016-04-28T01:32:19.631Z,17.21
2016-04-28T01:33:19.618Z,17.15
2016-04-28T01:34:19.590Z,17.09
2016-04-28T01:35:19.577Z,17.1
2016-04-28T01:36:19.549Z,17.17
2016-04-28T01:37:19.535Z,17.27
2016-04-28T01:38:19.523Z,17.21
2016-04-28T01:39:19.900Z,17.15
2016-04-28T01:40:19.482Z,17.17
2016-04-28T01:41:19.468Z,17.1
2016-04-28T01:42:19.455Z,17.18
2016-04-28T01:43:19.411Z,17.15
2016-04-28T01:44:19.414Z,17.27
2016-04-28T01:45:19.385Z,17.21
2016-04-28T01:46:19.215Z,17.18
2016-04-28T01:47:19.844Z,17.12
2016-04-28T01:48:19.331Z,17.24
2016-04-28T01:49:19.318Z,17.17
2016-04-28T01:50:19.304Z,17.17
2016-04-28T01:51:19.277Z,17.18
2016-04-28T01:52:19.248Z,17.21
2016-04-28T01:53:19.250Z,17.17
2016-04-28T01:54:19.238Z,17.18
2016-04-28T01:55:19.803Z,17.15
2016-04-28T01:56:18.884Z,17.22
2016-04-28T01:57:19.011Z,17.2
2016-04-28T01:58:19.139Z,17.18
2016-04-28T01:59:19.125Z,17.17
2016-04-28T02:00:19.098Z,17.15
2016-04-28T02:01:19.100Z,17.2
2016-04-28T02:02:19.071Z,17.1
2016-04-28T02:03:19.059Z,17.17
2016-04-28T02:04:19.046Z,17.17
2016-04-28T02:05:19.033Z,17.24
2016-04-28T02:06:19.019Z,17.14
2016-04-28T02:07:18.975Z,17.18
2016-04-28T02:08:18.963Z,17.15
2016-04-28T02:09:18.950Z,17.18
2016-04-28T02:10:18.937Z,17.22
2016-04-28T02:11:21.111Z,17.14
2016-04-28T02:12:19.739Z,17.14
2016-04-28T02:13:18.882Z,17.14
2016-04-28T02:14:18.854Z,17.21
2016-04-28T02:15:18.825Z,17.15
2016-04-28T02:16:18.813Z,17.17
2016-04-28T02:17:18.799Z,17.12
2016-04-28T02:18:18.787Z,17.14
2016-04-28T02:19:19.055Z,17.15
2016-04-28T02:20:18.745Z,17.12
2016-04-28T02:21:18.717Z,17.14
2016-04-28T02:22:18.719Z,17.21
2016-04-28T02:23:18.696Z,17.1
2016-04-28T02:24:18.668Z,17.14
2016-04-28T02:25:18.640Z,17.1
2016-04-28T02:26:19.360Z,17.14
2016-04-28T02:27:18.457Z,17.1
2016-04-28T02:28:18.115Z,17.1
2016-04-28T02:29:18.573Z,17.09
2016-04-28T02:30:18.575Z,17.12
2016-04-28T02:31:18.531Z,17.09
2016-04-28T02:32:18.517Z,17.12
2016-04-28T02:33:18.520Z,17.17
2016-04-28T02:34:18.492Z,17.09
2016-04-28T02:35:18.463Z,17.1
2016-04-28T02:36:18.451Z,17.1
2016-04-28T02:37:18.437Z,17.15
2016-04-28T02:38:18.409Z,17.1
2016-04-28T02:39:18.395Z,17.12
2016-04-28T02:40:18.382Z,17.15
2016-04-28T02:41:20.058Z,17.15
2016-04-28T02:42:18.342Z,17.15
2016-04-28T02:43:18.313Z,17.1
2016-04-28T02:44:18.299Z,17.15
2016-04-28T02:45:18.287Z,17.07
2016-04-28T02:46:18.274Z,17.1
2016-04-28T02:47:18.089Z,17.07
2016-04-28T02:48:18.232Z,17.14
2016-04-28T02:49:18.205Z,17.07
2016-04-28T02:50:18.050Z,17.1
2016-04-28T02:51:18.177Z,17.09
2016-04-28T02:52:18.165Z,17.09
2016-04-28T02:53:18.136Z,17.07
2016-04-28T02:54:18.124Z,17.09
2016-04-28T02:55:18.095Z,17.12
2016-04-28T02:56:18.395Z,17.15
2016-04-28T02:57:18.851Z,17.09
2016-04-28T02:58:18.056Z,17.1
2016-04-28T02:59:18.028Z,17.09
2016-04-28T03:00:18.170Z,17.1
2016-04-28T03:01:17.987Z,17.03
2016-04-28T03:02:17.973Z,17
2016-04-28T03:03:17.945Z,17.03
2016-04-28T03:04:17.931Z,17.06
2016-04-28T03:05:17.934Z,17.09
2016-04-28T03:06:17.890Z,16.99
2016-04-28T03:07:17.877Z,17.03
2016-04-28T03:08:18.161Z,16.99
2016-04-28T03:09:17.836Z,16.95
2016-04-28T03:10:17.823Z,17
2016-04-28T03:11:18.106Z,17
2016-04-28T03:12:18.016Z,16.99
2016-04-28T03:13:17.769Z,17.03
2016-04-28T03:14:17.739Z,17
2016-04-28T03:15:17.727Z,16.92
2016-04-28T03:16:18.152Z,17.02
2016-04-28T03:17:17.685Z,17.02
2016-04-28T03:18:17.672Z,16.96
2016-04-28T03:19:17.660Z,16.88
2016-04-28T03:20:17.630Z,17.02
2016-04-28T03:21:17.618Z,16.88
2016-04-28T03:22:17.590Z,16.9
2016-04-28T03:23:17.593Z,16.9
2016-04-28T03:24:18.157Z,16.88
2016-04-28T03:25:17.535Z,16.98
2016-04-28T03:26:18.007Z,16.87
2016-04-28T03:27:17.509Z,16.98
2016-04-28T03:28:17.481Z,16.9
2016-04-28T03:29:17.467Z,16.88
2016-04-28T03:30:17.455Z,16.81
2016-04-28T03:31:17.426Z,16.85
2016-04-28T03:32:17.460Z,16.91
2016-04-28T03:33:17.400Z,16.84
2016-04-28T03:34:17.372Z,16.82
2016-04-28T03:35:17.359Z,16.92
2016-04-28T03:36:17.330Z,16.91
2016-04-28T03:37:17.317Z,16.9
2016-04-28T03:38:17.304Z,16.88
2016-04-28T03:39:17.292Z,16.8
2016-04-28T03:40:17.466Z,16.81
2016-04-28T03:41:17.874Z,16.88
2016-04-28T03:42:17.097Z,16.88
2016-04-28T03:43:17.208Z,16.88
2016-04-28T03:44:17.180Z,16.9
2016-04-28T03:45:17.166Z,16.91
2016-04-28T03:46:17.155Z,16.96
2016-04-28T03:47:17.141Z,16.88
2016-04-28T03:48:17.471Z,16.95
2016-04-28T03:49:17.100Z,16.88
2016-04-28T03:50:17.071Z,16.85
2016-04-28T03:51:17.058Z,16.87
2016-04-28T03:52:17.045Z,16.91
2016-04-28T03:53:17.016Z,16.87
2016-04-28T03:54:17.004Z,16.87
2016-04-28T03:55:17.084Z,16.85
2016-04-28T03:56:17.009Z,16.82
2016-04-28T03:57:17.699Z,16.85
2016-04-28T03:58:16.937Z,16.9
2016-04-28T03:59:16.907Z,16.92
2016-04-28T04:00:16.895Z,16.84
2016-04-28T04:01:16.882Z,16.84
2016-04-28T04:02:16.854Z,16.91
2016-04-28T04:03:17.075Z,17.33
2016-04-28T04:04:16.671Z,17.86
2016-04-28T04:05:16.799Z,18.28
2016-04-28T04:06:16.786Z,18.78
2016-04-28T04:07:16.773Z,19.23
2016-04-28T04:08:16.744Z,19.68
2016-04-28T04:09:16.731Z,20.15
2016-04-28T04:10:16.703Z,20.44
2016-04-28T04:11:16.925Z,20.68
2016-04-28T04:12:17.099Z,20.88
2016-04-28T04:13:16.664Z,21.12
2016-04-28T04:14:16.636Z,21.43
2016-04-28T04:15:16.622Z,21.77
2016-04-28T04:16:16.594Z,21.96
2016-04-28T04:17:16.581Z,22.14
2016-04-28T04:18:16.569Z,22.26
2016-04-28T04:19:17.102Z,22.36
2016-04-28T04:20:16.526Z,22.49
2016-04-28T04:21:16.514Z,22.38
2016-04-28T04:22:16.501Z,22.42
2016-04-28T04:23:16.488Z,22.31
2016-04-28T04:24:16.459Z,22.3
2016-04-28T04:25:16.463Z,22.27
2016-04-28T04:26:18.855Z,22.31
2016-04-28T04:27:16.983Z,22.05
2016-04-28T04:28:16.392Z,22.01
2016-04-28T04:29:16.379Z,21.74
2016-04-28T04:30:16.351Z,21.68
2016-04-28T04:31:16.337Z,21.49
2016-04-28T04:32:16.340Z,21.4
2016-04-28T04:33:16.312Z,21.3
2016-04-28T04:34:16.298Z,21.13
2016-04-28T04:35:16.379Z,21.09
2016-04-28T04:36:16.256Z,21.01
2016-04-28T04:37:16.245Z,20.94
2016-04-28T04:38:16.231Z,20.93
2016-04-28T04:39:16.203Z,20.85
2016-04-28T04:40:16.206Z,20.85
2016-04-28T04:41:16.817Z,20.79
2016-04-28T04:42:16.898Z,20.85
2016-04-28T04:43:16.385Z,20.69
2016-04-28T04:44:16.122Z,20.88
2016-04-28T04:45:16.125Z,20.73
2016-04-28T04:46:15.941Z,20.79
2016-04-28T04:47:16.083Z,20.85
2016-04-28T04:48:16.055Z,20.9
2016-04-28T04:49:16.058Z,20.78
2016-04-28T04:50:16.029Z,20.72
2016-04-28T04:51:16.422Z,20.73
2016-04-28T04:52:15.988Z,20.78
2016-04-28T04:53:15.975Z,20.75
2016-04-28T04:54:15.962Z,20.75
2016-04-28T04:55:15.933Z,20.75
2016-04-28T04:56:15.702Z,20.76
2016-04-28T04:57:18.282Z,20.71
2016-04-28T04:58:16.051Z,20.66
2016-04-28T04:59:15.865Z,20.66
2016-04-28T05:00:15.869Z,20.68
2016-04-28T05:01:15.824Z,20.63
2016-04-28T05:02:15.827Z,20.76
2016-04-28T05:03:15.798Z,20.83
2016-04-28T05:04:15.785Z,20.85
2016-04-28T05:05:15.757Z,21.06
2016-04-28T05:06:15.994Z,21.05
2016-04-28T05:07:15.731Z,21.22
2016-04-28T05:08:15.718Z,21.28
2016-04-28T05:09:15.706Z,21.22
2016-04-28T05:10:15.676Z,21.28
2016-04-28T05:11:15.366Z,21.33
2016-04-28T05:12:16.010Z,21.38
2016-04-28T05:13:15.639Z,21.4
2016-04-28T05:14:16.016Z,21.38
2016-04-28T05:15:15.596Z,21.56
2016-04-28T05:16:15.584Z,21.37
2016-04-28T05:17:15.555Z,21.3
2016-04-28T05:18:15.527Z,21.16
2016-04-28T05:19:15.513Z,21.11
2016-04-28T05:20:15.517Z,20.93
2016-04-28T05:21:15.487Z,20.94
2016-04-28T05:22:16.022Z,20.83
2016-04-28T05:23:15.461Z,20.76
2016-04-28T05:24:15.432Z,20.63
2016-04-28T05:25:15.404Z,20.61
2016-04-28T05:26:15.595Z,20.69
2016-04-28T05:27:17.207Z,20.63
2016-04-28T05:28:15.365Z,20.75
2016-04-28T05:29:15.369Z,20.72
2016-04-28T05:30:16.027Z,20.72
2016-04-28T05:31:15.312Z,20.73
2016-04-28T05:32:15.298Z,20.73
2016-04-28T05:33:15.271Z,20.75
2016-04-28T05:34:15.272Z,20.76
2016-04-28T05:35:15.260Z,20.75
2016-04-28T05:36:15.231Z,20.72
2016-04-28T05:37:15.202Z,20.79
2016-04-28T05:38:16.033Z,20.81
2016-04-28T05:39:15.177Z,20.73
2016-04-28T05:40:15.164Z,20.78
2016-04-28T05:41:16.681Z,20.76
2016-04-28T05:42:15.762Z,20.66
2016-04-28T05:43:15.109Z,20.75
2016-04-28T05:44:15.097Z,20.78
2016-04-28T05:45:15.084Z,20.83
2016-04-28T05:46:16.164Z,20.9
2016-04-28T05:47:15.041Z,20.91
2016-04-28T05:48:15.029Z,20.83
2016-04-28T05:49:15.016Z,21
2016-04-28T05:50:14.988Z,20.98
2016-04-28T05:51:14.974Z,21.09
2016-04-28T05:52:14.947Z,20.96
2016-04-28T05:53:14.933Z,21.05
2016-04-28T05:54:15.311Z,21.01
2016-04-28T05:55:14.907Z,21.01
2016-04-28T05:56:14.879Z,20.93
2016-04-28T05:57:16.772Z,20.93
2016-04-28T05:58:14.837Z,20.96
2016-04-28T05:59:14.824Z,20.87
2016-04-28T06:00:14.811Z,21.01
2016-04-28T06:01:14.804Z,20.87
2016-04-28T06:02:14.817Z,20.79
2016-04-28T06:03:14.844Z,20.9
2016-04-28T06:04:14.871Z,20.73
2016-04-28T06:05:14.900Z,20.75
2016-04-28T06:06:14.907Z,20.63
2016-04-28T06:07:14.909Z,20.63
2016-04-28T06:08:14.911Z,20.71
2016-04-28T06:09:14.929Z,20.64
2016-04-28T06:10:14.883Z,20.71
2016-04-28T06:11:15.243Z,20.72
2016-04-28T06:12:15.438Z,20.85
2016-04-28T06:13:14.868Z,20.78
2016-04-28T06:14:14.859Z,20.88
2016-04-28T06:15:14.853Z,20.91
2016-04-28T06:16:14.827Z,20.93
2016-04-28T06:17:14.801Z,20.88
2016-04-28T06:18:14.805Z,20.83
2016-04-28T06:19:15.419Z,20.97
2016-04-28T06:20:14.784Z,20.97
2016-04-28T06:21:14.757Z,20.97
2016-04-28T06:22:14.745Z,21.03
2016-04-28T06:23:14.717Z,21.11
2016-04-28T06:24:14.704Z,21.15
2016-04-28T06:25:14.692Z,21.26
2016-04-28T06:26:14.681Z,21.15
2016-04-28T06:27:15.558Z,21.12
2016-04-28T06:28:14.624Z,21.05
2016-04-28T06:29:14.611Z,21.13
2016-04-28T06:30:14.599Z,20.97
2016-04-28T06:31:14.602Z,20.97
2016-04-28T06:32:14.573Z,20.97
2016-04-28T06:33:14.546Z,20.97
2016-04-28T06:34:14.532Z,21.12
2016-04-28T06:35:14.660Z,21.21
2016-04-28T06:36:14.507Z,21.38
2016-04-28T06:37:14.493Z,21.45
2016-04-28T06:38:14.464Z,21.42
2016-04-28T06:39:14.436Z,21.36
2016-04-28T06:40:14.439Z,21.34
2016-04-28T06:41:14.410Z,21.18
2016-04-28T06:42:14.397Z,21.15
2016-04-28T06:43:14.697Z,21.15
2016-04-28T06:44:14.356Z,21.13
2016-04-28T06:45:14.342Z,21.16
2016-04-28T06:46:14.330Z,20.98
2016-04-28T06:47:14.317Z,20.9
2016-04-28T06:48:14.289Z,20.88
2016-04-28T06:49:14.275Z,20.79
2016-04-28T06:50:14.262Z,20.75
2016-04-28T06:51:14.749Z,20.75
2016-04-28T06:52:14.222Z,20.6
2016-04-28T06:53:14.208Z,20.63
2016-04-28T06:54:14.195Z,20.53
2016-04-28T06:55:14.166Z,20.34
2016-04-28T06:56:14.169Z,20.41
2016-04-28T06:57:14.188Z,20.38
2016-04-28T06:58:14.127Z,20.23
2016-04-28T06:59:14.724Z,20.3
2016-04-28T07:00:14.085Z,20.22
2016-04-28T07:01:14.057Z,20.01
2016-04-28T07:02:14.045Z,19.97
2016-04-28T07:03:14.032Z,20.16
2016-04-28T07:04:14.018Z,20.25
2016-04-28T07:05:13.991Z,20.46
2016-04-28T07:06:13.993Z,20.79
2016-04-28T07:07:13.964Z,20.9
2016-04-28T07:08:13.951Z,21
2016-04-28T07:09:13.938Z,20.94
2016-04-28T07:10:13.894Z,21.05
2016-04-28T07:11:13.898Z,21.22
2016-04-28T07:12:13.931Z,21.19
2016-04-28T07:13:13.871Z,21.22
2016-04-28T07:14:13.843Z,21.34
2016-04-28T07:15:14.017Z,21.45
2016-04-28T07:16:13.801Z,21.4
2016-04-28T07:17:13.803Z,21.4
2016-04-28T07:18:13.775Z,21.38
2016-04-28T07:19:13.762Z,21.4
2016-04-28T07:20:13.733Z,21.37
2016-04-28T07:21:13.720Z,21.4
2016-04-28T07:22:13.614Z,21.43
2016-04-28T07:23:13.977Z,21.42
2016-04-28T07:24:13.668Z,21.31
2016-04-28T07:25:13.654Z,21.3
2016-04-28T07:26:13.642Z,21.31
2016-04-28T07:27:13.660Z,21.3
2016-04-28T07:28:13.600Z,21.24
2016-04-28T07:29:13.586Z,21.28
2016-04-28T07:30:13.464Z,21.31
2016-04-28T07:31:14.014Z,21.3
2016-04-28T07:32:13.548Z,21.37
2016-04-28T07:33:13.520Z,21.37
2016-04-28T07:34:13.507Z,21.38
2016-04-28T07:35:13.478Z,21.37
2016-04-28T07:36:13.466Z,21.42
2016-04-28T07:37:13.452Z,21.37
2016-04-28T07:38:13.627Z,21.33
2016-04-28T07:39:13.410Z,21.28
2016-04-28T07:40:13.382Z,21.26
2016-04-28T07:41:13.369Z,21.27
2016-04-28T07:42:13.388Z,21.33
2016-04-28T07:43:13.359Z,21.4
2016-04-28T07:44:13.877Z,21.49
2016-04-28T07:45:13.411Z,21.51
2016-04-28T07:46:13.711Z,21.51
2016-04-28T07:47:13.261Z,21.52
2016-04-28T07:48:13.091Z,21.55
2016-04-28T07:49:13.234Z,21.55
2016-04-28T07:50:13.221Z,21.52
2016-04-28T07:51:13.224Z,21.53
2016-04-28T07:52:13.195Z,21.56
2016-04-28T07:53:13.167Z,21.58
2016-04-28T07:54:13.654Z,21.53
2016-04-28T07:55:12.892Z,21.46
2016-04-28T07:56:21.848Z,21.45
2016-04-28T07:57:13.663Z,21.48
2016-04-28T07:58:15.150Z,21.36
2016-04-28T07:59:13.090Z,21.33
2016-04-28T08:00:13.045Z,21.27
2016-04-28T08:01:13.033Z,21.27
2016-04-28T08:02:13.661Z,21.27
2016-04-28T08:03:14.616Z,21.24
2016-04-28T08:04:12.978Z,21.21
2016-04-28T08:05:12.964Z,21.26
2016-04-28T08:06:13.342Z,21.27
2016-04-28T08:07:13.223Z,21.16
2016-04-28T08:08:12.798Z,21.21
2016-04-28T08:09:12.878Z,21.26
2016-04-28T08:10:12.928Z,21.28
2016-04-28T08:11:12.852Z,21.27
2016-04-28T08:12:14.261Z,21.19
2016-04-28T08:13:15.654Z,21.16
2016-04-28T08:14:12.797Z,20.93
2016-04-28T08:15:12.770Z,20.88
2016-04-28T08:16:12.756Z,20.79
2016-04-28T08:17:12.759Z,20.66
2016-04-28T08:18:12.934Z,20.71
2016-04-28T08:19:12.546Z,20.57
2016-04-28T08:20:12.705Z,20.68
2016-04-28T08:21:12.675Z,20.75
2016-04-28T08:22:12.647Z,20.93
2016-04-28T08:23:12.650Z,21.15
2016-04-28T08:24:12.622Z,21.13
2016-04-28T08:25:12.608Z,21.3
2016-04-28T08:26:12.955Z,21.3
2016-04-28T08:27:12.520Z,21.27
2016-04-28T08:28:13.523Z,21.26
2016-04-28T08:29:12.558Z,21.21
2016-04-28T08:30:12.513Z,21.28
2016-04-28T08:31:12.516Z,21.36
2016-04-28T08:32:12.502Z,21.38
2016-04-28T08:33:12.521Z,21.43
2016-04-28T08:34:13.664Z,21.28
2016-04-28T08:35:12.432Z,21.34
2016-04-28T08:36:12.419Z,21.37
2016-04-28T08:37:12.391Z,21.38
2016-04-28T08:38:12.221Z,21.38
2016-04-28T08:39:12.365Z,21.42
2016-04-28T08:40:12.351Z,21.34
2016-04-28T08:41:12.574Z,21.31
2016-04-28T08:42:12.905Z,21.21
2016-04-28T08:43:12.298Z,21.27
2016-04-28T08:44:12.270Z,21.26
2016-04-28T08:45:12.272Z,21.26
2016-04-28T08:46:12.243Z,21.3
2016-04-28T08:47:12.231Z,21.06
2016-04-28T08:48:12.217Z,20.93
2016-04-28T08:49:12.533Z,20.94
2016-04-28T08:50:12.176Z,20.83
2016-04-28T08:51:12.164Z,20.68
2016-04-28T08:52:12.134Z,20.53
2016-04-28T08:53:12.122Z,20.63
2016-04-28T08:54:12.108Z,20.44
2016-04-28T08:55:12.080Z,20.3
2016-04-28T08:56:12.067Z,20.33
2016-04-28T08:57:14.680Z,20.17
2016-04-28T08:58:15.869Z,20.12
2016-04-28T08:59:12.028Z,19.95
2016-04-28T09:00:12.015Z,19.94
2016-04-28T09:01:11.986Z,19.95
2016-04-28T09:02:11.958Z,19.8
2016-04-28T09:03:11.789Z,19.78
2016-04-28T09:04:11.933Z,19.72
2016-04-28T09:05:12.576Z,19.7
2016-04-28T09:06:11.891Z,19.6
2016-04-28T09:07:11.878Z,19.61
2016-04-28T09:08:11.865Z,19.61
2016-04-28T09:09:11.852Z,19.68
2016-04-28T09:10:11.823Z,19.57
2016-04-28T09:11:11.826Z,19.5
2016-04-28T09:12:13.391Z,19.47
2016-04-28T09:13:11.551Z,19.34
2016-04-28T09:14:11.757Z,19.35
2016-04-28T09:15:11.743Z,19.27
2016-04-28T09:16:11.715Z,19.23
2016-04-28T09:17:11.701Z,19.31
2016-04-28T09:18:11.689Z,19.16
2016-04-28T09:19:11.676Z,19.25
2016-04-28T09:20:11.647Z,19.25
2016-04-28T09:21:11.884Z,19.2
2016-04-28T09:22:11.622Z,19.1
2016-04-28T09:23:11.608Z,19.1
2016-04-28T09:24:11.595Z,19.1
2016-04-28T09:25:11.567Z,19.12
2016-04-28T09:26:11.554Z,19.02
2016-04-28T09:27:11.963Z,19.05
2016-04-28T09:28:11.513Z,19.05
2016-04-28T09:29:12.577Z,18.97
2016-04-28T09:30:11.486Z,18.96
2016-04-28T09:31:11.473Z,19.06
2016-04-28T09:32:11.444Z,19.02
2016-04-28T09:33:11.417Z,19.02
2016-04-28T09:34:11.404Z,19.06
2016-04-28T09:35:11.390Z,19.01
2016-04-28T09:36:11.377Z,19.05
2016-04-28T09:37:11.349Z,18.93
2016-04-28T09:38:11.321Z,18.97
2016-04-28T09:39:11.323Z,19.05
2016-04-28T09:40:11.295Z,18.94
2016-04-28T09:41:11.281Z,18.94
2016-04-28T09:42:12.112Z,18.99
2016-04-28T09:43:11.241Z,18.87
2016-04-28T09:44:11.227Z,18.93
2016-04-28T09:45:11.215Z,18.94
2016-04-28T09:46:11.904Z,18.94
2016-04-28T09:47:12.032Z,18.97
2016-04-28T09:48:11.144Z,18.89
2016-04-28T09:49:11.178Z,18.97
2016-04-28T09:50:11.118Z,18.84
2016-04-28T09:51:11.106Z,18.83
2016-04-28T09:52:11.092Z,18.86
2016-04-28T09:53:11.064Z,18.86
2016-04-28T09:54:11.161Z,18.83
2016-04-28T09:55:11.038Z,18.84
2016-04-28T09:56:10.853Z,18.84
2016-04-28T09:57:11.230Z,18.91
2016-04-28T09:58:10.968Z,18.83
2016-04-28T09:59:10.955Z,18.91
2016-04-28T10:00:10.942Z,18.87
2016-04-28T10:01:10.914Z,18.87
2016-04-28T10:02:11.166Z,18.9
2016-04-28T10:03:10.903Z,18.93
2016-04-28T10:04:10.875Z,19.02
2016-04-28T10:05:10.862Z,18.99
2016-04-28T10:06:10.849Z,19.01
2016-04-28T10:07:10.821Z,19.16
2016-04-28T10:08:10.824Z,19.16
2016-04-28T10:09:10.780Z,19.12
2016-04-28T10:10:11.219Z,19.13
2016-04-28T10:11:10.754Z,19.21
2016-04-28T10:12:11.678Z,19.12
2016-04-28T10:13:11.023Z,19.2
2016-04-28T10:14:10.682Z,19.21
2016-04-28T10:15:10.671Z,19.17
2016-04-28T10:16:10.657Z,19.16
2016-04-28T10:17:10.800Z,19.23
2016-04-28T10:18:10.647Z,19.34
2016-04-28T10:19:10.603Z,19.12
2016-04-28T10:20:10.589Z,19.16
2016-04-28T10:21:10.562Z,19.17
2016-04-28T10:22:10.392Z,19.16
2016-04-28T10:23:10.520Z,19.16
2016-04-28T10:24:10.522Z,19.2
2016-04-28T10:25:10.807Z,19.16
2016-04-28T10:26:10.497Z,19.09
2016-04-28T10:27:10.547Z,19.12
2016-04-28T10:28:10.439Z,19.09
2016-04-28T10:29:10.427Z,19.12
2016-04-28T10:30:10.414Z,19.07
2016-04-28T10:31:10.385Z,19.01
2016-04-28T10:32:10.372Z,19.12
2016-04-28T10:33:10.813Z,19.01
2016-04-28T10:34:10.346Z,19.02
2016-04-28T10:35:10.318Z,19.01
2016-04-28T10:36:10.321Z,18.93
2016-04-28T10:37:10.277Z,18.99
2016-04-28T10:38:10.264Z,19.01
2016-04-28T10:39:10.249Z,18.94
2016-04-28T10:40:10.237Z,18.94
2016-04-28T10:41:10.818Z,18.99
2016-04-28T10:42:10.102Z,18.89
2016-04-28T10:43:10.198Z,18.99
2016-04-28T10:44:10.154Z,18.84
2016-04-28T10:45:10.188Z,18.97
2016-04-28T10:46:10.191Z,18.99
2016-04-28T10:47:10.194Z,18.97
2016-04-28T10:48:10.196Z,18.99
2016-04-28T10:49:10.949Z,18.97
2016-04-28T10:50:10.171Z,18.93
2016-04-28T10:51:10.095Z,19.01
2016-04-28T10:52:10.082Z,18.99
2016-04-28T10:53:10.069Z,19.02
2016-04-28T10:54:10.025Z,19.06
2016-04-28T10:55:09.965Z,19.06
2016-04-28T10:56:09.953Z,19.09
2016-04-28T10:57:09.939Z,19.13
2016-04-28T10:58:09.911Z,19.25
2016-04-28T10:59:09.898Z,19.15
2016-04-28T11:00:09.869Z,19.24
2016-04-28T11:01:09.872Z,19.23
2016-04-28T11:02:10.219Z,19.27
2016-04-28T11:03:09.878Z,19.28
2016-04-28T11:04:09.817Z,19.38
2016-04-28T11:05:10.133Z,19.39
2016-04-28T11:06:09.776Z,19.4
2016-04-28T11:07:09.763Z,19.55
2016-04-28T11:08:09.750Z,19.58
2016-04-28T11:09:09.721Z,19.6
2016-04-28T11:10:09.693Z,19.7
2016-04-28T11:11:09.680Z,19.78
2016-04-28T11:12:10.168Z,19.64
2016-04-28T11:13:10.373Z,19.58
2016-04-28T11:14:09.626Z,19.55
2016-04-28T11:15:09.613Z,19.52
2016-04-28T11:16:09.584Z,19.4
2016-04-28T11:17:09.587Z,19.34
2016-04-28T11:18:09.574Z,19.34
2016-04-28T11:19:09.389Z,19.28
2016-04-28T11:20:09.767Z,19.43
2016-04-28T11:21:09.497Z,19.46
2016-04-28T11:22:09.486Z,19.35
2016-04-28T11:23:09.473Z,19.31
2016-04-28T11:24:09.491Z,19.3
2016-04-28T11:25:09.447Z,19.39
2016-04-28T11:26:09.417Z,19.34
2016-04-28T11:27:10.639Z,19.34
2016-04-28T11:28:11.033Z,19.42
2016-04-28T11:29:09.363Z,19.38
2016-04-28T11:30:09.350Z,19.46
2016-04-28T11:31:09.337Z,19.62
2016-04-28T11:32:09.309Z,19.61
2016-04-28T11:33:09.297Z,19.43
2016-04-28T11:34:09.268Z,19.2
2016-04-28T11:35:09.254Z,19.2
2016-04-28T11:36:09.741Z,19.27
2016-04-28T11:37:09.228Z,19.57
2016-04-28T11:38:09.199Z,19.82
2016-04-28T11:39:09.187Z,20.26
2016-04-28T11:40:09.174Z,20.72
2016-04-28T11:41:09.162Z,20.96
2016-04-28T11:42:08.992Z,21.26
2016-04-28T11:43:09.979Z,21.53
2016-04-28T11:44:09.748Z,21.75
2016-04-28T11:45:09.094Z,21.98
2016-04-28T11:46:09.065Z,22.27
2016-04-28T11:47:09.865Z,22.54
2016-04-28T11:48:09.024Z,22.67
2016-04-28T11:49:09.011Z,22.85
2016-04-28T11:50:08.826Z,22.88
2016-04-28T11:51:08.985Z,22.97
2016-04-28T11:52:09.020Z,22.97
2016-04-28T11:53:08.944Z,23.12
2016-04-28T11:54:08.930Z,22.99
2016-04-28T11:55:08.902Z,23.12
2016-04-28T11:56:08.889Z,23.09
2016-04-28T11:57:08.892Z,23.11
2016-04-28T11:58:08.723Z,23.16
2016-04-28T11:59:08.850Z,23.14
2016-04-28T12:00:09.041Z,23.12
2016-04-28T12:01:08.809Z,23.15
2016-04-28T12:02:08.796Z,23.09
2016-04-28T12:03:08.783Z,23.11
2016-04-28T12:04:08.863Z,22.99
2016-04-28T12:05:08.741Z,23
2016-04-28T12:06:08.729Z,22.84
2016-04-28T12:07:08.716Z,22.84
2016-04-28T12:08:09.030Z,22.76
2016-04-28T12:09:08.690Z,22.67
2016-04-28T12:10:08.676Z,22.59
2016-04-28T12:11:08.632Z,22.48
2016-04-28T12:12:09.463Z,22.56
2016-04-28T12:13:09.544Z,22.44
2016-04-28T12:14:08.593Z,22.41
2016-04-28T12:15:08.565Z,22.19
2016-04-28T12:16:08.568Z,22.27
2016-04-28T12:17:08.571Z,22.19
2016-04-28T12:18:08.526Z,22.15
2016-04-28T12:19:08.529Z,22.08
2016-04-28T12:20:08.329Z,22.06
2016-04-28T12:21:08.473Z,22.08
2016-04-28T12:22:08.475Z,22.02
2016-04-28T12:23:08.446Z,21.94
2016-04-28T12:24:08.417Z,21.94
2016-04-28T12:25:08.405Z,21.94
2016-04-28T12:26:08.407Z,21.83
2016-04-28T12:27:08.660Z,22.02
2016-04-28T12:28:10.225Z,22.11
2016-04-28T12:29:08.337Z,22.05
2016-04-28T12:30:08.325Z,22.17
2016-04-28T12:31:08.311Z,22.35
2016-04-28T12:32:08.299Z,22.48
2016-04-28T12:33:08.286Z,22.56
2016-04-28T12:34:08.258Z,22.57
2016-04-28T12:35:08.243Z,22.69
2016-04-28T12:36:08.215Z,22.72
2016-04-28T12:37:08.202Z,22.74
2016-04-28T12:38:08.283Z,22.79
2016-04-28T12:39:08.193Z,22.88
2016-04-28T12:40:08.164Z,22.88
2016-04-28T12:41:08.135Z,22.99
2016-04-28T12:42:08.154Z,23
2016-04-28T12:43:08.125Z,23.01
2016-04-28T12:44:08.082Z,23.04
2016-04-28T12:45:08.083Z,23.14
2016-04-28T12:46:08.070Z,23.14
2016-04-28T12:47:08.042Z,23.16
2016-04-28T12:48:08.045Z,23.29
2016-04-28T12:49:08.078Z,23.26
2016-04-28T12:50:07.972Z,23.41
2016-04-28T12:51:07.975Z,23.41
2016-04-28T12:52:07.946Z,23.5
2016-04-28T12:53:07.933Z,23.6
2016-04-28T12:54:07.920Z,23.67
2016-04-28T12:55:07.907Z,23.69
2016-04-28T12:56:07.894Z,23.86